sensor_id;sensor_type;location;lat;lon;timestamp;pressure;altitude;pressure_sealevel;temperature;humidity
40155;BME280;25875;48.202;16.334;2022-09-09T00:01:23;98899.53;;;17.17;61.95
40155;BME280;25875;48.202;16.334;2022-09-09T00:03:59;98921.75;;;17.57;63.01
40155;BME280;25875;48.202;16.334;2022-09-09T00:06:30;98916.53;;;17.56;62.81
40155;BME280;25875;48.202;16.334;2022-09-09T00:09:02;98917.25;;;17.58;62.85
40155;BME280;25875;48.202;16.334;2022-09-09T00:11:39;98876.03;;;17.30;62.15
40155;BME280;25875;48.202;16.334;2022-09-09T00:14:14;98927.25;;;17.56;62.08
40155;BME280;25875;48.202;16.334;2022-09-09T00:16:48;98916.53;;;17.56;62.38
40155;BME280;25875;48.202;16.334;2022-09-09T00:19:22;98927.25;;;17.56;62.74
40155;BME280;25875;48.202;16.334;2022-09-09T00:22:00;98902.13;;;17.38;62.22
40155;BME280;25875;48.202;16.334;2022-09-09T00:24:38;98932.03;;;17.52;62.02
40155;BME280;25875;48.202;16.334;2022-09-09T00:27:16;98926.81;;;17.41;60.47
40155;BME280;25875;48.202;16.334;2022-09-09T00:29:51;98917.34;;;17.37;61.49
40155;BME280;25875;48.202;16.334;2022-09-09T00:32:21;98837.31;;;16.94;62.07
40155;BME280;25875;48.202;16.334;2022-09-09T00:34:52;98906.78;;;17.45;62.13
40155;BME280;25875;48.202;16.334;2022-09-09T00:37:22;98782.19;;;16.72;62.40
40155;BME280;25875;48.202;16.334;2022-09-09T00:39:53;98906.38;;;17.50;62.70
40155;BME280;25875;48.202;16.334;2022-09-09T00:42:27;98818.44;;;16.95;62.14
40155;BME280;25875;48.202;16.334;2022-09-09T00:45:01;98909.91;;;17.50;62.28
40155;BME280;25875;48.202;16.334;2022-09-09T00:47:40;98915.25;;;17.50;61.33
40155;BME280;25875;48.202;16.334;2022-09-09T00:50:22;98916.25;;;17.49;62.08
40155;BME280;25875;48.202;16.334;2022-09-09T00:53:02;98916.25;;;17.49;62.26
40155;BME280;25875;48.202;16.334;2022-09-09T00:55:41;98870.78;;;17.19;62.18
40155;BME280;25875;48.202;16.334;2022-09-09T00:58:13;98923.00;;;17.44;62.60
40155;BME280;25875;48.202;16.334;2022-09-09T01:00:43;98934.44;;;17.46;62.71
40155;BME280;25875;48.202;16.334;2022-09-09T01:03:22;98906.75;;;17.26;61.13
40155;BME280;25875;48.202;16.334;2022-09-09T01:06:00;98928.22;;;17.36;61.76
40155;BME280;25875;48.202;16.334;2022-09-09T01:08:49;98934.00;;;17.41;61.57
40155;BME280;25875;48.202;16.334;2022-09-09T01:11:22;98887.38;;;17.13;62.20
40155;BME280;25875;48.202;16.334;2022-09-09T01:13:58;98881.44;;;16.99;61.04
40155;BME280;25875;48.202;16.334;2022-09-09T01:16:29;98937.78;;;17.38;62.66
40155;BME280;25875;48.202;16.334;2022-09-09T01:18:58;98937.63;;;17.30;61.20
40155;BME280;25875;48.202;16.334;2022-09-09T01:21:39;98939.06;;;17.34;61.07
40155;BME280;25875;48.202;16.334;2022-09-09T01:24:22;98749.00;;;16.04;59.99
40155;BME280;25875;48.202;16.334;2022-09-09T01:27:01;98916.41;;;17.08;60.39
40155;BME280;25875;48.202;16.334;2022-09-09T01:29:29;98924.56;;;17.06;61.31
40155;BME280;25875;48.202;16.334;2022-09-09T01:31:58;98947.84;;;17.15;60.93
40155;BME280;25875;48.202;16.334;2022-09-09T01:34:28;98948.41;;;17.09;61.63
40155;BME280;25875;48.202;16.334;2022-09-09T01:37:02;98957.00;;;17.13;61.31
40155;BME280;25875;48.202;16.334;2022-09-09T01:39:31;98958.84;;;17.12;61.93
40155;BME280;25875;48.202;16.334;2022-09-09T01:42:01;98949.50;;;17.07;61.14
40155;BME280;25875;48.202;16.334;2022-09-09T01:44:29;98951.63;;;17.03;61.71
40155;BME280;25875;48.202;16.334;2022-09-09T01:46:57;98964.56;;;16.98;61.89
40155;BME280;25875;48.202;16.334;2022-09-09T01:49:24;98898.28;;;16.60;61.44
40155;BME280;25875;48.202;16.334;2022-09-09T01:51:53;98958.34;;;16.97;61.82
40155;BME280;25875;48.202;16.334;2022-09-09T01:54:24;98933.50;;;16.86;61.58
40155;BME280;25875;48.202;16.334;2022-09-09T01:57:05;98958.34;;;16.97;60.96
40155;BME280;25875;48.202;16.334;2022-09-09T01:59:45;98956.84;;;17.05;60.80
40155;BME280;25875;48.202;16.334;2022-09-09T02:02:18;98948.75;;;16.95;61.15
40155;BME280;25875;48.202;16.334;2022-09-09T02:04:51;98835.06;;;16.28;60.74
40155;BME280;25875;48.202;16.334;2022-09-09T02:07:32;98747.72;;;15.78;61.08
40155;BME280;25875;48.202;16.334;2022-09-09T02:10:17;98944.97;;;16.97;60.52
40155;BME280;25875;48.202;16.334;2022-09-09T02:12:51;98948.59;;;16.87;61.38
40155;BME280;25875;48.202;16.334;2022-09-09T02:15:23;98924.28;;;16.69;60.79
40155;BME280;25875;48.202;16.334;2022-09-09T02:17:57;98938.28;;;16.82;60.68
40155;BME280;25875;48.202;16.334;2022-09-09T02:20:26;98941.41;;;16.87;61.62
40155;BME280;25875;48.202;16.334;2022-09-09T02:22:55;98939.84;;;16.85;61.53
40155;BME280;25875;48.202;16.334;2022-09-09T02:25:25;98910.09;;;16.78;61.66
40155;BME280;25875;48.202;16.334;2022-09-09T02:27:56;98882.97;;;16.62;61.85
40155;BME280;25875;48.202;16.334;2022-09-09T02:30:25;98932.28;;;16.99;61.96
40155;BME280;25875;48.202;16.334;2022-09-09T02:32:57;98865.22;;;16.61;62.52
40155;BME280;25875;48.202;16.334;2022-09-09T02:35:27;98916.34;;;16.88;62.21
40155;BME280;25875;48.202;16.334;2022-09-09T02:37:59;98929.59;;;16.90;62.47
40155;BME280;25875;48.202;16.334;2022-09-09T02:40:29;98932.63;;;16.76;61.79
40155;BME280;25875;48.202;16.334;2022-09-09T02:42:58;98942.75;;;16.72;61.82
40155;BME280;25875;48.202;16.334;2022-09-09T02:45:31;98422.63;;;13.63;62.00
40155;BME280;25875;48.202;16.334;2022-09-09T02:48:09;98942.66;;;16.83;62.15
40155;BME280;25875;48.202;16.334;2022-09-09T02:50:48;98908.94;;;16.71;62.98
40155;BME280;25875;48.202;16.334;2022-09-09T02:53:23;98939.16;;;16.92;62.64
40155;BME280;25875;48.202;16.334;2022-09-09T02:55:55;98938.19;;;16.93;62.55
40155;BME280;25875;48.202;16.334;2022-09-09T02:58:26;98920.81;;;16.78;62.87
40155;BME280;25875;48.202;16.334;2022-09-09T03:00:54;98943.81;;;16.90;62.82
40155;BME280;25875;48.202;16.334;2022-09-09T03:03:24;98943.81;;;16.90;63.65
40155;BME280;25875;48.202;16.334;2022-09-09T03:05:51;98946.63;;;16.89;63.55
40155;BME280;25875;48.202;16.334;2022-09-09T03:08:18;98945.78;;;16.88;63.20
40155;BME280;25875;48.202;16.334;2022-09-09T03:10:45;98954.88;;;16.76;63.23
40155;BME280;25875;48.202;16.334;2022-09-09T03:13:13;98950.63;;;16.74;63.38
40155;BME280;25875;48.202;16.334;2022-09-09T03:15:42;98951.94;;;16.79;63.84
40155;BME280;25875;48.202;16.334;2022-09-09T03:18:09;98955.31;;;16.81;63.63
40155;BME280;25875;48.202;16.334;2022-09-09T03:20:37;98949.00;;;16.82;63.83
40155;BME280;25875;48.202;16.334;2022-09-09T03:23:04;98943.06;;;16.79;63.73
40155;BME280;25875;48.202;16.334;2022-09-09T03:25:31;98906.84;;;16.54;63.72
40155;BME280;25875;48.202;16.334;2022-09-09T03:27:59;98958.34;;;16.67;64.15
40155;BME280;25875;48.202;16.334;2022-09-09T03:30:27;98944.50;;;16.62;64.26
40155;BME280;25875;48.202;16.334;2022-09-09T03:32:56;98946.78;;;16.66;63.90
40155;BME280;25875;48.202;16.334;2022-09-09T03:35:24;98899.63;;;16.45;64.25
40155;BME280;25875;48.202;16.334;2022-09-09T03:37:51;98941.75;;;16.73;64.71
40155;BME280;25875;48.202;16.334;2022-09-09T03:40:18;98935.69;;;16.71;64.62
40155;BME280;25875;48.202;16.334;2022-09-09T03:42:45;98935.84;;;16.70;64.50
40155;BME280;25875;48.202;16.334;2022-09-09T03:45:14;98927.09;;;16.67;64.51
40155;BME280;25875;48.202;16.334;2022-09-09T03:47:41;98941.75;;;16.73;64.54
40155;BME280;25875;48.202;16.334;2022-09-09T03:50:10;98950.50;;;16.75;64.45
40155;BME280;25875;48.202;16.334;2022-09-09T03:52:39;98949.06;;;16.71;64.70
40155;BME280;25875;48.202;16.334;2022-09-09T03:55:08;98951.47;;;16.74;64.64
40155;BME280;25875;48.202;16.334;2022-09-09T03:57:35;98955.13;;;16.73;65.11
40155;BME280;25875;48.202;16.334;2022-09-09T04:00:03;98939.09;;;16.73;65.08
40155;BME280;25875;48.202;16.334;2022-09-09T04:02:31;98938.78;;;16.66;65.42
40155;BME280;25875;48.202;16.334;2022-09-09T04:04:58;98838.03;;;16.04;65.64
40155;BME280;25875;48.202;16.334;2022-09-09T04:07:27;98947.66;;;16.67;65.67
40155;BME280;25875;48.202;16.334;2022-09-09T04:09:54;98928.25;;;16.54;65.87
40155;BME280;25875;48.202;16.334;2022-09-09T04:12:21;98951.31;;;16.66;65.63
40155;BME280;25875;48.202;16.334;2022-09-09T04:14:48;98949.56;;;16.65;65.70
40155;BME280;25875;48.202;16.334;2022-09-09T04:17:16;98921.22;;;16.53;65.99
40155;BME280;25875;48.202;16.334;2022-09-09T04:19:44;98944.13;;;16.66;66.03
40155;BME280;25875;48.202;16.334;2022-09-09T04:22:11;98945.06;;;16.65;65.89
40155;BME280;25875;48.202;16.334;2022-09-09T04:24:40;98951.31;;;16.66;66.19
40155;BME280;25875;48.202;16.334;2022-09-09T04:27:07;98953.38;;;16.62;66.50
40155;BME280;25875;48.202;16.334;2022-09-09T04:29:34;98932.31;;;16.48;66.17
40155;BME280;25875;48.202;16.334;2022-09-09T04:32:01;98949.97;;;16.60;66.69
40155;BME280;25875;48.202;16.334;2022-09-09T04:34:29;98959.81;;;16.60;66.55
40155;BME280;25875;48.202;16.334;2022-09-09T04:36:57;98961.91;;;16.56;66.59
40155;BME280;25875;48.202;16.334;2022-09-09T04:39:24;98966.69;;;16.53;66.78
40155;BME280;25875;48.202;16.334;2022-09-09T04:41:53;98976.13;;;16.57;66.61
40155;BME280;25875;48.202;16.334;2022-09-09T04:44:21;98979.78;;;16.56;66.39
40155;BME280;25875;48.202;16.334;2022-09-09T04:46:48;98979.06;;;16.54;67.04
40155;BME280;25875;48.202;16.334;2022-09-09T04:49:15;98983.59;;;16.53;66.96
40155;BME280;25875;48.202;16.334;2022-09-09T04:51:43;98983.84;;;16.50;67.10
40155;BME280;25875;48.202;16.334;2022-09-09T04:54:11;98938.44;;;16.18;66.79
40155;BME280;25875;48.202;16.334;2022-09-09T04:56:38;98988.88;;;16.44;67.08
40155;BME280;25875;48.202;16.334;2022-09-09T04:59:09;98984.94;;;16.48;67.21
40155;BME280;25875;48.202;16.334;2022-09-09T05:01:36;98985.22;;;16.45;66.98
40155;BME280;25875;48.202;16.334;2022-09-09T05:04:04;98831.88;;;15.51;66.91
40155;BME280;25875;48.202;16.334;2022-09-09T05:06:31;98964.28;;;16.29;66.56
40155;BME280;25875;48.202;16.334;2022-09-09T05:08:58;98900.09;;;15.87;66.94
40155;BME280;25875;48.202;16.334;2022-09-09T05:11:27;98975.81;;;16.29;66.49
40155;BME280;25875;48.202;16.334;2022-09-09T05:13:55;99002.75;;;16.38;66.61
40155;BME280;25875;48.202;16.334;2022-09-09T05:16:24;98990.38;;;16.36;66.64
40155;BME280;25875;48.202;16.334;2022-09-09T05:18:52;98975.34;;;16.24;66.54
40155;BME280;25875;48.202;16.334;2022-09-09T05:21:21;98994.72;;;16.38;66.80
40155;BME280;25875;48.202;16.334;2022-09-09T05:23:49;98991.94;;;16.39;66.88
40155;BME280;25875;48.202;16.334;2022-09-09T05:26:18;98995.59;;;16.38;67.46
40155;BME280;25875;48.202;16.334;2022-09-09T05:28:46;98996.56;;;16.37;67.28
40155;BME280;25875;48.202;16.334;2022-09-09T05:31:15;98992.91;;;16.38;66.79
40155;BME280;25875;48.202;16.334;2022-09-09T05:33:45;98977.63;;;16.29;66.93
40155;BME280;25875;48.202;16.334;2022-09-09T05:36:15;98987.22;;;16.31;66.39
40155;BME280;25875;48.202;16.334;2022-09-09T05:38:43;99000.72;;;16.30;66.91
40155;BME280;25875;48.202;16.334;2022-09-09T05:41:11;99005.09;;;16.31;66.96
40155;BME280;25875;48.202;16.334;2022-09-09T05:43:41;99003.72;;;16.36;66.99
40155;BME280;25875;48.202;16.334;2022-09-09T05:46:11;98984.09;;;16.26;67.21
40155;BME280;25875;48.202;16.334;2022-09-09T05:48:40;98999.56;;;16.44;67.64
40155;BME280;25875;48.202;16.334;2022-09-09T05:51:11;99006.09;;;16.51;68.08
40155;BME280;25875;48.202;16.334;2022-09-09T05:53:38;99000.75;;;16.51;67.58
40155;BME280;25875;48.202;16.334;2022-09-09T05:56:08;99005.81;;;16.54;67.56
40155;BME280;25875;48.202;16.334;2022-09-09T05:58:37;98995.84;;;16.56;67.79
40155;BME280;25875;48.202;16.334;2022-09-09T06:01:06;99005.44;;;16.58;67.86
40155;BME280;25875;48.202;16.334;2022-09-09T06:03:35;98940.13;;;16.19;67.37
40155;BME280;25875;48.202;16.334;2022-09-09T06:06:04;98865.75;;;15.83;67.47
40155;BME280;25875;48.202;16.334;2022-09-09T06:08:34;99003.47;;;16.60;66.99
40155;BME280;25875;48.202;16.334;2022-09-09T06:11:03;98991.34;;;16.56;66.43
40155;BME280;25875;48.202;16.334;2022-09-09T06:13:31;98869.13;;;15.85;66.88
40155;BME280;25875;48.202;16.334;2022-09-09T06:15:59;98981.59;;;16.66;66.45
40155;BME280;25875;48.202;16.334;2022-09-09T06:18:27;98982.63;;;16.75;66.82
40155;BME280;25875;48.202;16.334;2022-09-09T06:20:56;98846.31;;;16.22;66.43
40155;BME280;25875;48.202;16.334;2022-09-09T06:23:24;98981.34;;;17.30;66.08
40155;BME280;25875;48.202;16.334;2022-09-09T06:26:00;98960.91;;;17.39;65.45
40155;BME280;25875;48.202;16.334;2022-09-09T06:28:28;98921.28;;;17.33;65.20
40155;BME280;25875;48.202;16.334;2022-09-09T06:30:57;98956.38;;;17.80;64.22
40155;BME280;25875;48.202;16.334;2022-09-09T06:33:25;98969.66;;;18.10;63.86
40155;BME280;25875;48.202;16.334;2022-09-09T06:35:54;98952.41;;;18.22;63.28
40155;BME280;25875;48.202;16.334;2022-09-09T06:38:22;98966.91;;;18.49;62.65
40155;BME280;25875;48.202;16.334;2022-09-09T06:40:52;98964.22;;;18.68;62.33
40155;BME280;25875;48.202;16.334;2022-09-09T06:43:21;98966.22;;;18.66;62.27
40155;BME280;25875;48.202;16.334;2022-09-09T06:45:55;98966.22;;;18.56;62.27
40155;BME280;25875;48.202;16.334;2022-09-09T06:48:23;98970.19;;;18.43;63.76
40155;BME280;25875;48.202;16.334;2022-09-09T06:50:51;98983.88;;;18.30;64.06
40155;BME280;25875;48.202;16.334;2022-09-09T06:53:26;98966.81;;;18.12;64.15
40155;BME280;25875;48.202;16.334;2022-09-09T06:55:55;98991.81;;;18.22;64.74
40155;BME280;25875;48.202;16.334;2022-09-09T06:58:23;98984.47;;;18.24;63.61
40155;BME280;25875;48.202;16.334;2022-09-09T07:00:50;98962.72;;;18.17;63.76
40155;BME280;25875;48.202;16.334;2022-09-09T07:03:17;98975.84;;;18.30;63.21
40155;BME280;25875;48.202;16.334;2022-09-09T07:05:53;98972.72;;;18.35;62.66
40155;BME280;25875;48.202;16.334;2022-09-09T07:08:22;98973.72;;;18.34;63.53
40155;BME280;25875;48.202;16.334;2022-09-09T07:10:50;98978.81;;;18.37;63.54
40155;BME280;25875;48.202;16.334;2022-09-09T07:13:23;98979.09;;;18.53;64.00
40155;BME280;25875;48.202;16.334;2022-09-09T07:15:51;98989.66;;;18.64;62.76
40155;BME280;25875;48.202;16.334;2022-09-09T07:18:18;98983.00;;;18.68;62.38
40155;BME280;25875;48.202;16.334;2022-09-09T07:20:53;98979.75;;;18.74;62.11
40155;BME280;25875;48.202;16.334;2022-09-09T07:23:20;98975.09;;;18.76;62.58
40155;BME280;25875;48.202;16.334;2022-09-09T07:25:48;98962.78;;;18.74;61.76
40155;BME280;25875;48.202;16.334;2022-09-09T07:28:16;98956.91;;;18.61;62.12
40155;BME280;25875;48.202;16.334;2022-09-09T07:30:52;98951.81;;;18.67;60.70
40155;BME280;25875;48.202;16.334;2022-09-09T07:33:20;98969.53;;;18.87;61.81
40155;BME280;25875;48.202;16.334;2022-09-09T07:35:47;98974.59;;;19.00;62.26
40155;BME280;25875;48.202;16.334;2022-09-09T07:38:15;98977.09;;;19.11;61.80
40155;BME280;25875;48.202;16.334;2022-09-09T07:40:42;98979.72;;;19.21;60.08
40155;BME280;25875;48.202;16.334;2022-09-09T07:43:10;98979.53;;;19.32;60.43
40155;BME280;25875;48.202;16.334;2022-09-09T07:45:38;98981.78;;;19.37;60.14
40155;BME280;25875;48.202;16.334;2022-09-09T07:48:08;98967.06;;;19.41;59.49
40155;BME280;25875;48.202;16.334;2022-09-09T07:50:36;98974.69;;;19.45;60.17
40155;BME280;25875;48.202;16.334;2022-09-09T07:53:05;98976.22;;;19.48;60.82
40155;BME280;25875;48.202;16.334;2022-09-09T07:55:32;98984.84;;;19.51;60.47
40155;BME280;25875;48.202;16.334;2022-09-09T07:58:00;98904.59;;;19.02;60.24
40155;BME280;25875;48.202;16.334;2022-09-09T08:00:27;98980.06;;;19.45;61.05
40155;BME280;25875;48.202;16.334;2022-09-09T08:02:55;98981.19;;;19.43;60.53
40155;BME280;25875;48.202;16.334;2022-09-09T08:05:23;98983.03;;;19.42;61.32
40155;BME280;25875;48.202;16.334;2022-09-09T08:07:51;98991.53;;;19.38;61.21
40155;BME280;25875;48.202;16.334;2022-09-09T08:10:18;99000.44;;;19.38;60.87
40155;BME280;25875;48.202;16.334;2022-09-09T08:12:46;99003.00;;;19.40;60.52
40155;BME280;25875;48.202;16.334;2022-09-09T08:15:15;98991.25;;;19.41;60.49
40155;BME280;25875;48.202;16.334;2022-09-09T08:17:42;99002.00;;;19.41;61.31
40155;BME280;25875;48.202;16.334;2022-09-09T08:20:09;99004.84;;;19.39;60.78
40155;BME280;25875;48.202;16.334;2022-09-09T08:22:38;98993.25;;;19.39;60.71
40155;BME280;25875;48.202;16.334;2022-09-09T08:25:06;98990.97;;;19.44;61.08
40155;BME280;25875;48.202;16.334;2022-09-09T08:27:34;98974.13;;;19.42;60.54
40155;BME280;25875;48.202;16.334;2022-09-09T08:30:01;98995.13;;;19.56;60.69
40155;BME280;25875;48.202;16.334;2022-09-09T08:32:28;98999.06;;;19.62;60.27
40155;BME280;25875;48.202;16.334;2022-09-09T08:34:56;98998.84;;;19.73;60.01
40155;BME280;25875;48.202;16.334;2022-09-09T08:37:23;99003.34;;;19.82;58.95
40155;BME280;25875;48.202;16.334;2022-09-09T08:39:52;98957.13;;;19.69;58.33
40155;BME280;25875;48.202;16.334;2022-09-09T08:42:36;98995.69;;;20.05;57.68
40155;BME280;25875;48.202;16.334;2022-09-09T08:45:25;98982.16;;;20.14;56.55
40155;BME280;25875;48.202;16.334;2022-09-09T08:48:05;98981.09;;;20.25;56.28
40155;BME280;25875;48.202;16.334;2022-09-09T08:50:36;98981.50;;;20.30;57.81
40155;BME280;25875;48.202;16.334;2022-09-09T08:53:11;98974.47;;;20.37;56.13
40155;BME280;25875;48.202;16.334;2022-09-09T08:55:46;98966.69;;;20.52;55.57
40155;BME280;25875;48.202;16.334;2022-09-09T08:58:17;98963.84;;;20.54;55.98
40155;BME280;25875;48.202;16.334;2022-09-09T09:00:57;98970.72;;;20.74;54.37
40155;BME280;25875;48.202;16.334;2022-09-09T09:03:35;98969.56;;;20.76;53.70
40155;BME280;25875;48.202;16.334;2022-09-09T09:06:14;98975.31;;;20.81;53.55
40155;BME280;25875;48.202;16.334;2022-09-09T09:08:51;98967.84;;;20.75;53.01
40155;BME280;25875;48.202;16.334;2022-09-09T09:11:23;98904.66;;;20.62;54.13
40155;BME280;25875;48.202;16.334;2022-09-09T09:13:54;98957.31;;;21.08;54.83
40155;BME280;25875;48.202;16.334;2022-09-09T09:16:29;98963.06;;;21.13;53.39
40155;BME280;25875;48.202;16.334;2022-09-09T09:18:59;98953.97;;;21.14;54.13
40155;BME280;25875;48.202;16.334;2022-09-09T09:21:34;98951.63;;;21.19;53.41
40155;BME280;25875;48.202;16.334;2022-09-09T09:24:04;98876.94;;;20.69;52.24
40155;BME280;25875;48.202;16.334;2022-09-09T09:26:37;98954.00;;;21.22;54.13
40155;BME280;25875;48.202;16.334;2022-09-09T09:29:11;98864.22;;;20.79;51.59
40155;BME280;25875;48.202;16.334;2022-09-09T09:31:44;98943.84;;;21.58;53.15
40155;BME280;25875;48.202;16.334;2022-09-09T09:34:13;98929.84;;;21.55;52.65
40155;BME280;25875;48.202;16.334;2022-09-09T09:36:43;98942.75;;;21.85;52.14
40155;BME280;25875;48.202;16.334;2022-09-09T09:39:22;98609.63;;;19.84;49.02
40155;BME280;25875;48.202;16.334;2022-09-09T09:41:52;98913.53;;;21.72;51.88
40155;BME280;25875;48.202;16.334;2022-09-09T09:44:25;98930.47;;;21.91;51.20
40155;BME280;25875;48.202;16.334;2022-09-09T09:47:05;98931.31;;;21.91;50.42
40155;BME280;25875;48.202;16.334;2022-09-09T09:49:33;98901.75;;;21.73;53.23
40155;BME280;25875;48.202;16.334;2022-09-09T09:52:01;98938.06;;;21.95;52.66
40155;BME280;25875;48.202;16.334;2022-09-09T09:54:30;98929.78;;;22.05;52.25
40155;BME280;25875;48.202;16.334;2022-09-09T09:57:09;98847.97;;;21.64;49.09
40155;BME280;25875;48.202;16.334;2022-09-09T09:59:37;98896.41;;;21.90;51.78
40155;BME280;25875;48.202;16.334;2022-09-09T10:02:16;98919.50;;;22.08;49.31
40155;BME280;25875;48.202;16.334;2022-09-09T10:04:44;98848.81;;;21.64;51.78
40155;BME280;25875;48.202;16.334;2022-09-09T10:07:13;98920.69;;;22.14;51.33
40155;BME280;25875;48.202;16.334;2022-09-09T10:09:44;98928.44;;;22.17;51.71
40155;BME280;25875;48.202;16.334;2022-09-09T10:12:23;98921.69;;;22.13;49.64
40155;BME280;25875;48.202;16.334;2022-09-09T10:15:00;98926.25;;;22.13;50.80
40155;BME280;25875;48.202;16.334;2022-09-09T10:17:37;98880.72;;;21.93;50.39
40155;BME280;25875;48.202;16.334;2022-09-09T10:20:21;98916.31;;;22.29;49.35
40155;BME280;25875;48.202;16.334;2022-09-09T10:22:52;98920.34;;;22.33;51.86
40155;BME280;25875;48.202;16.334;2022-09-09T10:25:33;98926.25;;;22.21;49.84
40155;BME280;25875;48.202;16.334;2022-09-09T10:31:22;98833.13;;;21.60;51.71
40155;BME280;25875;48.202;16.334;2022-09-09T10:34:02;98919.34;;;22.10;50.53
40155;BME280;25875;48.202;16.334;2022-09-09T10:36:33;98922.88;;;22.10;52.40
40155;BME280;25875;48.202;16.334;2022-09-09T10:39:04;98920.69;;;22.14;52.80
40155;BME280;25875;48.202;16.334;2022-09-09T10:41:44;98909.72;;;22.16;51.08
40155;BME280;25875;48.202;16.334;2022-09-09T10:44:39;98912.44;;;22.16;50.25
40155;BME280;25875;48.202;16.334;2022-09-09T10:50:29;98912.25;;;22.25;50.38
40155;BME280;25875;48.202;16.334;2022-09-09T10:53:02;98926.94;;;22.31;51.53
40155;BME280;25875;48.202;16.334;2022-09-09T10:55:39;98922.88;;;22.35;51.43
40155;BME280;25875;48.202;16.334;2022-09-09T10:58:13;98927.47;;;22.42;51.99
40155;BME280;25875;48.202;16.334;2022-09-09T11:00:44;98926.28;;;22.45;51.83
40155;BME280;25875;48.202;16.334;2022-09-09T11:03:18;98803.97;;;21.63;51.65
40155;BME280;25875;48.202;16.334;2022-09-09T11:05:51;98901.97;;;22.29;52.55
40155;BME280;25875;48.202;16.334;2022-09-09T11:08:21;98919.53;;;22.41;53.19
40155;BME280;25875;48.202;16.334;2022-09-09T11:10:52;98916.66;;;22.42;51.48
40155;BME280;25875;48.202;16.334;2022-09-09T11:13:24;98915.78;;;22.34;51.88
40155;BME280;25875;48.202;16.334;2022-09-09T11:16:00;98925.06;;;22.23;50.12
40155;BME280;25875;48.202;16.334;2022-09-09T11:18:29;98922.03;;;22.18;52.40
40155;BME280;25875;48.202;16.334;2022-09-09T11:21:00;98918.00;;;22.22;52.00
40155;BME280;25875;48.202;16.334;2022-09-09T11:23:36;98842.44;;;21.82;52.03
40155;BME280;25875;48.202;16.334;2022-09-09T11:26:07;98914.44;;;22.22;53.38
40155;BME280;25875;48.202;16.334;2022-09-09T11:28:48;98918.00;;;22.22;51.50
40155;BME280;25875;48.202;16.334;2022-09-09T11:31:35;98898.59;;;22.10;50.61
40155;BME280;25875;48.202;16.334;2022-09-09T11:34:17;98920.34;;;22.17;50.52
40155;BME280;25875;48.202;16.334;2022-09-09T11:37:03;98911.91;;;22.20;51.54
40155;BME280;25875;48.202;16.334;2022-09-09T11:39:49;98908.53;;;22.18;50.60
40155;BME280;25875;48.202;16.334;2022-09-09T11:42:22;98908.38;;;22.20;52.48
40155;BME280;25875;48.202;16.334;2022-09-09T11:44:50;98908.03;;;22.23;50.62
40155;BME280;25875;48.202;16.334;2022-09-09T11:47:23;98903.66;;;22.30;51.37
40155;BME280;25875;48.202;16.334;2022-09-09T11:49:55;98876.84;;;22.20;51.69
40155;BME280;25875;48.202;16.334;2022-09-09T11:52:37;98896.22;;;22.32;51.76
40155;BME280;25875;48.202;16.334;2022-09-09T11:55:09;98894.19;;;22.34;50.71
40155;BME280;25875;48.202;16.334;2022-09-09T11:57:38;98891.00;;;22.30;51.57
40155;BME280;25875;48.202;16.334;2022-09-09T12:00:06;98890.16;;;22.30;51.97
40155;BME280;25875;48.202;16.334;2022-09-09T12:02:36;98805.69;;;21.81;51.17
40155;BME280;25875;48.202;16.334;2022-09-09T12:05:07;98899.78;;;22.40;49.82
40155;BME280;25875;48.202;16.334;2022-09-09T12:07:37;98903.81;;;22.36;48.74
40155;BME280;25875;48.202;16.334;2022-09-09T12:10:21;98900.78;;;22.39;47.98
40155;BME280;25875;48.202;16.334;2022-09-09T12:12:49;98882.56;;;22.33;50.13
40155;BME280;25875;48.202;16.334;2022-09-09T12:15:23;98888.47;;;22.45;50.92
40155;BME280;25875;48.202;16.334;2022-09-09T12:17:54;98885.94;;;22.52;50.38
40155;BME280;25875;48.202;16.334;2022-09-09T12:20:32;98878.19;;;22.57;50.32
40155;BME280;25875;48.202;16.334;2022-09-09T12:23:15;98875.63;;;22.63;48.18
40155;BME280;25875;48.202;16.334;2022-09-09T12:25:55;98862.31;;;22.62;47.05
40155;BME280;25875;48.202;16.334;2022-09-09T12:28:29;98880.31;;;22.78;49.01
40155;BME280;25875;48.202;16.334;2022-09-09T12:31:07;98887.22;;;22.88;49.30
40155;BME280;25875;48.202;16.334;2022-09-09T12:33:44;98872.19;;;22.86;49.50
40155;BME280;25875;48.202;16.334;2022-09-09T12:36:17;98871.16;;;22.87;46.75
40155;BME280;25875;48.202;16.334;2022-09-09T12:38:46;98854.56;;;22.59;49.30
40155;BME280;25875;48.202;16.334;2022-09-09T12:41:19;98862.59;;;22.75;48.04
40155;BME280;25875;48.202;16.334;2022-09-09T12:43:47;98838.69;;;22.56;48.29
40155;BME280;25875;48.202;16.334;2022-09-09T12:46:24;98783.72;;;22.16;47.57
40155;BME280;25875;48.202;16.334;2022-09-09T12:48:57;98862.47;;;22.68;49.46
40155;BME280;25875;48.202;16.334;2022-09-09T12:51:27;98836.84;;;22.56;49.23
40155;BME280;25875;48.202;16.334;2022-09-09T12:53:55;98851.97;;;22.73;49.07
40155;BME280;25875;48.202;16.334;2022-09-09T12:56:25;98851.97;;;22.73;49.08
40155;BME280;25875;48.202;16.334;2022-09-09T12:58:55;98854.69;;;22.65;48.41
40155;BME280;25875;48.202;16.334;2022-09-09T13:01:24;98820.09;;;22.53;49.41
40155;BME280;25875;48.202;16.334;2022-09-09T13:03:52;98826.34;;;22.53;49.40
40155;BME280;25875;48.202;16.334;2022-09-09T13:06:23;98839.34;;;22.66;48.68
40155;BME280;25875;48.202;16.334;2022-09-09T13:08:50;98835.13;;;22.63;49.87
40155;BME280;25875;48.202;16.334;2022-09-09T13:11:22;98705.03;;;21.88;48.19
40155;BME280;25875;48.202;16.334;2022-09-09T13:13:53;98831.09;;;22.59;49.13
40155;BME280;25875;48.202;16.334;2022-09-09T13:16:24;98825.69;;;22.59;48.70
40155;BME280;25875;48.202;16.334;2022-09-09T13:18:52;98780.50;;;22.21;50.23